sensor_id;sensor_type;location;lat;lon;timestamp;P1;durP1;ratioP1;P2;durP2;ratioP2
76121;SDS011;70471;53.200;6.080;2023-08-30T00:01:42;1.95;;;1.05;;
76121;SDS011;70471;53.200;6.080;2023-08-30T00:06:34;1.40;;;1.17;;
76121;SDS011;70471;53.200;6.080;2023-08-30T00:11:25;1.98;;;1.20;;
76121;SDS011;70471;53.200;6.080;2023-08-30T00:16:17;1.77;;;1.25;;
76121;SDS011;70471;53.200;6.080;2023-08-30T00:26:01;2.67;;;1.08;;
76121;SDS011;70471;53.200;6.080;2023-08-30T00:30:53;2.08;;;1.27;;
76121;SDS011;70471;53.200;6.080;2023-08-30T00:35:45;1.27;;;1.10;;
76121;SDS011;70471;53.200;6.080;2023-08-30T00:40:41;2.53;;;1.40;;
76121;SDS011;70471;53.200;6.080;2023-08-30T00:45:32;1.60;;;1.33;;
76121;SDS011;70471;53.200;6.080;2023-08-30T00:50:24;1.50;;;0.88;;
76121;SDS011;70471;53.200;6.080;2023-08-30T00:55:15;1.60;;;1.35;;
76121;SDS011;70471;53.200;6.080;2023-08-30T01:00:09;1.80;;;1.10;;
76121;SDS011;70471;53.200;6.080;2023-08-30T01:05:02;2.35;;;1.10;;
76121;SDS011;70471;53.200;6.080;2023-08-30T01:09:53;2.63;;;1.40;;
76121;SDS011;70471;53.200;6.080;2023-08-30T01:14:46;1.30;;;1.05;;
76121;SDS011;70471;53.200;6.080;2023-08-30T01:19:48;1.95;;;1.20;;
76121;SDS011;70471;53.200;6.080;2023-08-30T01:24:48;1.55;;;1.05;;
76121;SDS011;70471;53.200;6.080;2023-08-30T01:29:50;3.05;;;1.98;;
76121;SDS011;70471;53.200;6.080;2023-08-30T01:34:45;1.90;;;1.63;;
76121;SDS011;70471;53.200;6.080;2023-08-30T01:39:38;3.55;;;1.90;;
76121;SDS011;70471;53.200;6.080;2023-08-30T01:44:30;1.50;;;1.02;;
76121;SDS011;70471;53.200;6.080;2023-08-30T01:49:24;1.38;;;1.08;;
76121;SDS011;70471;53.200;6.080;2023-08-30T01:54:17;2.10;;;1.10;;
76121;SDS011;70471;53.200;6.080;2023-08-30T01:59:10;2.38;;;1.35;;
76121;SDS011;70471;53.200;6.080;2023-08-30T02:04:01;1.23;;;0.88;;
76121;SDS011;70471;53.200;6.080;2023-08-30T02:13:47;3.67;;;1.75;;
76121;SDS011;70471;53.200;6.080;2023-08-30T02:18:40;2.28;;;1.30;;
76121;SDS011;70471;53.200;6.080;2023-08-30T02:23:33;2.15;;;1.13;;
76121;SDS011;70471;53.200;6.080;2023-08-30T02:28:25;1.77;;;1.42;;
76121;SDS011;70471;53.200;6.080;2023-08-30T02:33:17;1.30;;;1.15;;
76121;SDS011;70471;53.200;6.080;2023-08-30T02:38:08;1.70;;;1.30;;
76121;SDS011;70471;53.200;6.080;2023-08-30T02:43:00;1.83;;;1.42;;
76121;SDS011;70471;53.200;6.080;2023-08-30T02:47:55;2.25;;;1.27;;
76121;SDS011;70471;53.200;6.080;2023-08-30T02:52:47;2.35;;;1.50;;
76121;SDS011;70471;53.200;6.080;2023-08-30T02:57:39;1.98;;;1.58;;
76121;SDS011;70471;53.200;6.080;2023-08-30T03:02:30;2.17;;;1.55;;
76121;SDS011;70471;53.200;6.080;2023-08-30T03:07:23;2.05;;;1.42;;
76121;SDS011;70471;53.200;6.080;2023-08-30T03:12:14;2.78;;;1.85;;
76121;SDS011;70471;53.200;6.080;2023-08-30T03:21:57;1.70;;;1.52;;
76121;SDS011;70471;53.200;6.080;2023-08-30T03:26:51;1.70;;;1.45;;
76121;SDS011;70471;53.200;6.080;2023-08-30T03:31:43;2.78;;;1.80;;
76121;SDS011;70471;53.200;6.080;2023-08-30T03:41:25;2.00;;;1.42;;
76121;SDS011;70471;53.200;6.080;2023-08-30T03:51:09;2.47;;;1.42;;
76121;SDS011;70471;53.200;6.080;2023-08-30T04:00:53;2.65;;;1.77;;
76121;SDS011;70471;53.200;6.080;2023-08-30T04:10:37;3.03;;;1.70;;
76121;SDS011;70471;53.200;6.080;2023-08-30T04:15:32;3.22;;;2.08;;
76121;SDS011;70471;53.200;6.080;2023-08-30T04:20:23;3.08;;;1.65;;
76121;SDS011;70471;53.200;6.080;2023-08-30T04:25:16;2.38;;;1.70;;
76121;SDS011;70471;53.200;6.080;2023-08-30T04:30:09;1.70;;;1.30;;
76121;SDS011;70471;53.200;6.080;2023-08-30T04:35:01;1.73;;;1.35;;
76121;SDS011;70471;53.200;6.080;2023-08-30T04:39:54;2.35;;;1.75;;
76121;SDS011;70471;53.200;6.080;2023-08-30T04:44:47;1.98;;;1.58;;
76121;SDS011;70471;53.200;6.080;2023-08-30T04:49:38;2.72;;;2.10;;
76121;SDS011;70471;53.200;6.080;2023-08-30T04:59:21;2.33;;;1.73;;
76121;SDS011;70471;53.200;6.080;2023-08-30T05:04:14;2.42;;;1.80;;
76121;SDS011;70471;53.200;6.080;2023-08-30T05:09:05;3.55;;;2.28;;
76121;SDS011;70471;53.200;6.080;2023-08-30T05:13:57;3.42;;;2.10;;
76121;SDS011;70471;53.200;6.080;2023-08-30T05:23:41;3.40;;;1.77;;
76121;SDS011;70471;53.200;6.080;2023-08-30T05:28:32;4.45;;;2.40;;
76121;SDS011;70471;53.200;6.080;2023-08-30T05:33:24;3.25;;;2.22;;
76121;SDS011;70471;53.200;6.080;2023-08-30T05:38:15;4.28;;;2.90;;
76121;SDS011;70471;53.200;6.080;2023-08-30T05:43:08;3.05;;;2.53;;
76121;SDS011;70471;53.200;6.080;2023-08-30T05:48:00;3.22;;;2.10;;
76121;SDS011;70471;53.200;6.080;2023-08-30T05:52:51;3.35;;;1.70;;
76121;SDS011;70471;53.200;6.080;2023-08-30T05:57:43;2.55;;;1.13;;
76121;SDS011;70471;53.200;6.080;2023-08-30T06:02:36;2.50;;;1.48;;
76121;SDS011;70471;53.200;6.080;2023-08-30T06:07:28;2.90;;;1.25;;
76121;SDS011;70471;53.200;6.080;2023-08-30T06:12:19;1.30;;;0.90;;
76121;SDS011;70471;53.200;6.080;2023-08-30T06:17:11;1.17;;;0.75;;
76121;SDS011;70471;53.200;6.080;2023-08-30T06:26:55;0.75;;;0.68;;
76121;SDS011;70471;53.200;6.080;2023-08-30T06:36:38;1.88;;;0.90;;
76121;SDS011;70471;53.200;6.080;2023-08-30T06:41:30;1.90;;;1.20;;
76121;SDS011;70471;53.200;6.080;2023-08-30T06:46:22;1.92;;;1.20;;
76121;SDS011;70471;53.200;6.080;2023-08-30T06:51:13;1.85;;;0.90;;
76121;SDS011;70471;53.200;6.080;2023-08-30T06:56:05;1.55;;;1.10;;
76121;SDS011;70471;53.200;6.080;2023-08-30T07:00:58;1.45;;;1.00;;
76121;SDS011;70471;53.200;6.080;2023-08-30T07:05:50;2.10;;;1.52;;
76121;SDS011;70471;53.200;6.080;2023-08-30T07:10:42;1.75;;;1.13;;
76121;SDS011;70471;53.200;6.080;2023-08-30T07:15:33;2.10;;;1.27;;
76121;SDS011;70471;53.200;6.080;2023-08-30T07:20:26;1.95;;;1.10;;
76121;SDS011;70471;53.200;6.080;2023-08-30T07:25:18;2.10;;;1.17;;
76121;SDS011;70471;53.200;6.080;2023-08-30T07:35:01;2.15;;;1.15;;
76121;SDS011;70471;53.200;6.080;2023-08-30T07:39:54;2.05;;;1.13;;
76121;SDS011;70471;53.200;6.080;2023-08-30T07:44:45;3.53;;;1.15;;
76121;SDS011;70471;53.200;6.080;2023-08-30T07:54:28;3.13;;;1.35;;
76121;SDS011;70471;53.200;6.080;2023-08-30T07:59:22;2.03;;;1.13;;
76121;SDS011;70471;53.200;6.080;2023-08-30T08:04:13;1.60;;;0.95;;
76121;SDS011;70471;53.200;6.080;2023-08-30T08:13:57;1.83;;;1.23;;
76121;SDS011;70471;53.200;6.080;2023-08-30T08:23:42;2.05;;;1.05;;
76121;SDS011;70471;53.200;6.080;2023-08-30T08:28:33;1.25;;;0.82;;
76121;SDS011;70471;53.200;6.080;2023-08-30T08:33:25;2.53;;;0.93;;
76121;SDS011;70471;53.200;6.080;2023-08-30T08:43:10;2.05;;;1.23;;
76121;SDS011;70471;53.200;6.080;2023-08-30T08:48:03;3.08;;;1.25;;
76121;SDS011;70471;53.200;6.080;2023-08-30T08:52:55;2.33;;;0.93;;
76121;SDS011;70471;53.200;6.080;2023-08-30T08:57:49;1.85;;;1.35;;
76121;SDS011;70471;53.200;6.080;2023-08-30T09:02:40;2.53;;;1.08;;
76121;SDS011;70471;53.200;6.080;2023-08-30T09:07:33;1.98;;;1.10;;
76121;SDS011;70471;53.200;6.080;2023-08-30T09:12:24;1.25;;;0.90;;
76121;SDS011;70471;53.200;6.080;2023-08-30T09:17:17;1.52;;;0.98;;
76121;SDS011;70471;53.200;6.080;2023-08-30T09:22:09;2.22;;;1.35;;
76121;SDS011;70471;53.200;6.080;2023-08-30T09:27:00;2.17;;;1.40;;
76121;SDS011;70471;53.200;6.080;2023-08-30T09:36:45;2.15;;;1.60;;
76121;SDS011;70471;53.200;6.080;2023-08-30T09:47:29;1.80;;;0.70;;
76121;SDS011;70471;53.200;6.080;2023-08-30T09:52:23;0.65;;;0.43;;
76121;SDS011;70471;53.200;6.080;2023-08-30T09:57:16;3.42;;;0.68;;
76121;SDS011;70471;53.200;6.080;2023-08-30T10:02:08;2.83;;;0.80;;
76121;SDS011;70471;53.200;6.080;2023-08-30T10:07:01;2.15;;;1.23;;
76121;SDS011;70471;53.200;6.080;2023-08-30T10:11:55;1.90;;;0.80;;
76121;SDS011;70471;53.200;6.080;2023-08-30T10:16:49;1.77;;;1.00;;
76121;SDS011;70471;53.200;6.080;2023-08-30T10:21:44;2.03;;;1.00;;
76121;SDS011;70471;53.200;6.080;2023-08-30T10:26:35;1.50;;;0.70;;
76121;SDS011;70471;53.200;6.080;2023-08-30T10:31:34;1.17;;;0.90;;
76121;SDS011;70471;53.200;6.080;2023-08-30T10:36:27;0.93;;;0.65;;
76121;SDS011;70471;53.200;6.080;2023-08-30T10:41:22;0.95;;;0.77;;
76121;SDS011;70471;53.200;6.080;2023-08-30T10:46:15;1.08;;;0.60;;
76121;SDS011;70471;53.200;6.080;2023-08-30T10:51:19;1.58;;;0.60;;
76121;SDS011;70471;53.200;6.080;2023-08-30T10:56:12;1.55;;;0.80;;
76121;SDS011;70471;53.200;6.080;2023-08-30T11:01:04;0.90;;;0.57;;
76121;SDS011;70471;53.200;6.080;2023-08-30T11:05:57;1.00;;;0.70;;
76121;SDS011;70471;53.200;6.080;2023-08-30T11:11:01;1.25;;;0.88;;
76121;SDS011;70471;53.200;6.080;2023-08-30T11:20:53;0.98;;;0.63;;
76121;SDS011;70471;53.200;6.080;2023-08-30T11:25:49;1.08;;;0.80;;
76121;SDS011;70471;53.200;6.080;2023-08-30T11:30:43;0.82;;;0.70;;
76121;SDS011;70471;53.200;6.080;2023-08-30T11:35:34;1.25;;;0.60;;
76121;SDS011;70471;53.200;6.080;2023-08-30T11:40:26;0.82;;;0.60;;
76121;SDS011;70471;53.200;6.080;2023-08-30T11:45:18;0.82;;;0.68;;
76121;SDS011;70471;53.200;6.080;2023-08-30T11:50:11;0.93;;;0.65;;
76121;SDS011;70471;53.200;6.080;2023-08-30T11:55:03;2.00;;;1.00;;
76121;SDS011;70471;53.200;6.080;2023-08-30T11:59:55;0.57;;;0.47;;
76121;SDS011;70471;53.200;6.080;2023-08-30T12:04:58;0.93;;;0.73;;
76121;SDS011;70471;53.200;6.080;2023-08-30T12:09:51;2.35;;;0.80;;
76121;SDS011;70471;53.200;6.080;2023-08-30T12:14:43;1.05;;;0.75;;
76121;SDS011;70471;53.200;6.080;2023-08-30T12:19:34;0.88;;;0.77;;
76121;SDS011;70471;53.200;6.080;2023-08-30T12:24:26;1.73;;;0.93;;
76121;SDS011;70471;53.200;6.080;2023-08-30T12:29:19;1.08;;;0.70;;
76121;SDS011;70471;53.200;6.080;2023-08-30T12:34:10;2.47;;;0.80;;
76121;SDS011;70471;53.200;6.080;2023-08-30T12:43:54;1.00;;;0.60;;
76121;SDS011;70471;53.200;6.080;2023-08-30T12:53:38;0.80;;;0.70;;
76121;SDS011;70471;53.200;6.080;2023-08-30T12:58:29;0.93;;;0.63;;
76121;SDS011;70471;53.200;6.080;2023-08-30T13:03:21;1.05;;;0.60;;
76121;SDS011;70471;53.200;6.080;2023-08-30T13:08:14;1.92;;;1.17;;
76121;SDS011;70471;53.200;6.080;2023-08-30T13:13:05;1.58;;;0.63;;
76121;SDS011;70471;53.200;6.080;2023-08-30T13:17:57;1.27;;;0.70;;
76121;SDS011;70471;53.200;6.080;2023-08-30T13:22:48;1.10;;;0.70;;
76121;SDS011;70471;53.200;6.080;2023-08-30T13:27:41;1.33;;;0.55;;
76121;SDS011;70471;53.200;6.080;2023-08-30T13:32:32;1.05;;;0.50;;
76121;SDS011;70471;53.200;6.080;2023-08-30T13:37:25;3.10;;;0.57;;
76121;SDS011;70471;53.200;6.080;2023-08-30T13:42:16;1.30;;;0.50;;
76121;SDS011;70471;53.200;6.080;2023-08-30T13:52:00;1.42;;;0.50;;
76121;SDS011;70471;53.200;6.080;2023-08-30T13:56:53;1.13;;;0.45;;
76121;SDS011;70471;53.200;6.080;2023-08-30T14:01:44;0.75;;;0.50;;
76121;SDS011;70471;53.200;6.080;2023-08-30T14:06:37;0.88;;;0.50;;
76121;SDS011;70471;53.200;6.080;2023-08-30T14:11:28;1.40;;;0.65;;
76121;SDS011;70471;53.200;6.080;2023-08-30T14:21:11;0.57;;;0.40;;
76121;SDS011;70471;53.200;6.080;2023-08-30T14:26:05;1.17;;;0.50;;
76121;SDS011;70471;53.200;6.080;2023-08-30T14:31:00;0.73;;;0.30;;
76121;SDS011;70471;53.200;6.080;2023-08-30T14:35:54;0.93;;;0.30;;
76121;SDS011;70471;53.200;6.080;2023-08-30T14:40:53;1.33;;;0.22;;
76121;SDS011;70471;53.200;6.080;2023-08-30T14:45:47;1.00;;;0.30;;
76121;SDS011;70471;53.200;6.080;2023-08-30T14:50:38;0.52;;;0.30;;
76121;SDS011;70471;53.200;6.080;2023-08-30T14:55:29;1.13;;;0.40;;
76121;SDS011;70471;53.200;6.080;2023-08-30T15:00:21;1.20;;;0.40;;
76121;SDS011;70471;53.200;6.080;2023-08-30T15:05:14;1.17;;;0.40;;
76121;SDS011;70471;53.200;6.080;2023-08-30T15:10:06;0.38;;;0.35;;
76121;SDS011;70471;53.200;6.080;2023-08-30T15:14:57;0.57;;;0.40;;
76121;SDS011;70471;53.200;6.080;2023-08-30T15:19:49;0.65;;;0.30;;
76121;SDS011;70471;53.200;6.080;2023-08-30T15:24:42;0.68;;;0.40;;
76121;SDS011;70471;53.200;6.080;2023-08-30T15:29:34;1.88;;;0.47;;
76121;SDS011;70471;53.200;6.080;2023-08-30T15:34:25;0.82;;;0.30;;
76121;SDS011;70471;53.200;6.080;2023-08-30T15:39:17;0.30;;;0.25;;
76121;SDS011;70471;53.200;6.080;2023-08-30T15:44:10;0.40;;;0.30;;
76121;SDS011;70471;53.200;6.080;2023-08-30T15:49:01;0.90;;;0.30;;
76121;SDS011;70471;53.200;6.080;2023-08-30T15:53:53;0.40;;;0.40;;
76121;SDS011;70471;53.200;6.080;2023-08-30T15:58:45;1.83;;;0.22;;
76121;SDS011;70471;53.200;6.080;2023-08-30T16:03:38;0.47;;;0.20;;
76121;SDS011;70471;53.200;6.080;2023-08-30T16:08:30;1.05;;;0.30;;
76121;SDS011;70471;53.200;6.080;2023-08-30T16:13:21;0.47;;;0.30;;
76121;SDS011;70471;53.200;6.080;2023-08-30T16:18:13;0.47;;;0.28;;
76121;SDS011;70471;53.200;6.080;2023-08-30T16:23:07;1.15;;;0.35;;
76121;SDS011;70471;53.200;6.080;2023-08-30T16:27:59;0.43;;;0.28;;
76121;SDS011;70471;53.200;6.080;2023-08-30T16:32:51;1.63;;;0.50;;
76121;SDS011;70471;53.200;6.080;2023-08-30T16:37:42;0.38;;;0.20;;
76121;SDS011;70471;53.200;6.080;2023-08-30T16:42:35;0.60;;;0.20;;
76121;SDS011;70471;53.200;6.080;2023-08-30T16:47:26;0.40;;;0.30;;
76121;SDS011;70471;53.200;6.080;2023-08-30T16:52:18;0.38;;;0.25;;
76121;SDS011;70471;53.200;6.080;2023-08-30T16:57:09;0.35;;;0.20;;
76121;SDS011;70471;53.200;6.080;2023-08-30T17:02:02;0.50;;;0.20;;
76121;SDS011;70471;53.200;6.080;2023-08-30T17:06:54;0.22;;;0.10;;
76121;SDS011;70471;53.200;6.080;2023-08-30T17:11:49;0.47;;;0.28;;
76121;SDS011;70471;53.200;6.080;2023-08-30T17:16:40;0.52;;;0.20;;
76121;SDS011;70471;53.200;6.080;2023-08-30T17:21:33;1.02;;;0.30;;
76121;SDS011;70471;53.200;6.080;2023-08-30T17:26:25;0.55;;;0.30;;
76121;SDS011;70471;53.200;6.080;2023-08-30T17:31:16;0.50;;;0.30;;
76121;SDS011;70471;53.200;6.080;2023-08-30T17:36:13;0.70;;;0.20;;
76121;SDS011;70471;53.200;6.080;2023-08-30T17:41:09;0.57;;;0.20;;
76121;SDS011;70471;53.200;6.080;2023-08-30T17:46:01;0.98;;;0.17;;
76121;SDS011;70471;53.200;6.080;2023-08-30T17:50:53;0.45;;;0.17;;
76121;SDS011;70471;53.200;6.080;2023-08-30T17:55:52;0.40;;;0.20;;
76121;SDS011;70471;53.200;6.080;2023-08-30T18:00:45;0.30;;;0.20;;
76121;SDS011;70471;53.200;6.080;2023-08-30T18:05:37;0.82;;;0.20;;
76121;SDS011;70471;53.200;6.080;2023-08-30T18:10:29;5.15;;;0.38;;
76121;SDS011;70471;53.200;6.080;2023-08-30T18:15:20;0.28;;;0.20;;
76121;SDS011;70471;53.200;6.080;2023-08-30T18:20:14;0.65;;;0.25;;
76121;SDS011;70471;53.200;6.080;2023-08-30T18:25:06;0.65;;;0.10;;
76121;SDS011;70471;53.200;6.080;2023-08-30T18:29:57;0.20;;;0.10;;
76121;SDS011;70471;53.200;6.080;2023-08-30T18:34:49;1.58;;;0.40;;
76121;SDS011;70471;53.200;6.080;2023-08-30T18:39:42;1.00;;;0.22;;
76121;SDS011;70471;53.200;6.080;2023-08-30T18:44:33;2.85;;;0.40;;
76121;SDS011;70471;53.200;6.080;2023-08-30T18:49:25;1.80;;;0.28;;
76121;SDS011;70471;53.200;6.080;2023-08-30T18:54:16;0.43;;;0.20;;
76121;SDS011;70471;53.200;6.080;2023-08-30T18:59:09;0.93;;;0.30;;
76121;SDS011;70471;53.200;6.080;2023-08-30T19:04:02;0.30;;;0.20;;
76121;SDS011;70471;53.200;6.080;2023-08-30T19:08:53;1.27;;;0.22;;
76121;SDS011;70471;53.200;6.080;2023-08-30T19:13:45;0.82;;;0.17;;
76121;SDS011;70471;53.200;6.080;2023-08-30T19:18:39;1.20;;;0.40;;
76121;SDS011;70471;53.200;6.080;2023-08-30T19:23:30;0.32;;;0.10;;
76121;SDS011;70471;53.200;6.080;2023-08-30T19:28:22;1.60;;;0.32;;
76121;SDS011;70471;53.200;6.080;2023-08-30T19:33:14;0.20;;;0.20;;
76121;SDS011;70471;53.200;6.080;2023-08-30T19:38:06;0.77;;;0.20;;
76121;SDS011;70471;53.200;6.080;2023-08-30T19:42:58;0.60;;;0.40;;
76121;SDS011;70471;53.200;6.080;2023-08-30T19:47:49;0.73;;;0.13;;
76121;SDS011;70471;53.200;6.080;2023-08-30T19:52:41;0.47;;;0.10;;
76121;SDS011;70471;53.200;6.080;2023-08-30T19:57:34;0.47;;;0.10;;
76121;SDS011;70471;53.200;6.080;2023-08-30T20:02:26;0.10;;;0.10;;
76121;SDS011;70471;53.200;6.080;2023-08-30T20:07:18;0.63;;;0.20;;
76121;SDS011;70471;53.200;6.080;2023-08-30T20:12:10;0.52;;;0.20;;
76121;SDS011;70471;53.200;6.080;2023-08-30T20:17:03;0.38;;;0.15;;
76121;SDS011;70471;53.200;6.080;2023-08-30T20:21:54;2.75;;;0.30;;
76121;SDS011;70471;53.200;6.080;2023-08-30T20:26:46;1.38;;;0.32;;
76121;SDS011;70471;53.200;6.080;2023-08-30T20:31:38;0.65;;;0.20;;
76121;SDS011;70471;53.200;6.080;2023-08-30T20:36:31;0.38;;;0.25;;
76121;SDS011;70471;53.200;6.080;2023-08-30T20:41:23;0.35;;;0.30;;
76121;SDS011;70471;53.200;6.080;2023-08-30T20:46:16;3.40;;;0.30;;
76121;SDS011;70471;53.200;6.080;2023-08-30T20:51:07;1.83;;;0.20;;
76121;SDS011;70471;53.200;6.080;2023-08-30T20:56:00;0.32;;;0.10;;
76121;SDS011;70471;53.200;6.080;2023-08-30T21:00:55;0.63;;;0.28;;
76121;SDS011;70471;53.200;6.080;2023-08-30T21:05:47;0.38;;;0.10;;
76121;SDS011;70471;53.200;6.080;2023-08-30T21:10:39;0.25;;;0.10;;
76121;SDS011;70471;53.200;6.080;2023-08-30T21:15:32;0.20;;;0.10;;
76121;SDS011;70471;53.200;6.080;2023-08-30T21:20:23;0.30;;;0.10;;
76121;SDS011;70471;53.200;6.080;2023-08-30T21:25:15;0.57;;;0.20;;
76121;SDS011;70471;53.200;6.080;2023-08-30T21:30:07;0.17;;;0.08;;
76121;SDS011;70471;53.200;6.080;2023-08-30T21:35:00;0.13;;;0.10;;
76121;SDS011;70471;53.200;6.080;2023-08-30T21:39:51;0.10;;;0.10;;
76121;SDS011;70471;53.200;6.080;2023-08-30T21:44:43;0.82;;;0.20;;
76121;SDS011;70471;53.200;6.080;2023-08-30T21:49:34;0.20;;;0.10;;
76121;SDS011;70471;53.200;6.080;2023-08-30T21:54:27;0.40;;;0.25;;
76121;SDS011;70471;53.200;6.080;2023-08-30T21:59:19;0.17;;;0.00;;
76121;SDS011;70471;53.200;6.080;2023-08-30T22:04:12;0.20;;;0.10;;
76121;SDS011;70471;53.200;6.080;2023-08-30T22:09:04;0.10;;;0.05;;
76121;SDS011;70471;53.200;6.080;2023-08-30T22:13:59;0.55;;;0.20;;
76121;SDS011;70471;53.200;6.080;2023-08-30T22:18:50;0.45;;;0.10;;
76121;SDS011;70471;53.200;6.080;2023-08-30T22:23:42;0.13;;;0.10;;
76121;SDS011;70471;53.200;6.080;2023-08-30T22:28:34;1.23;;;0.38;;
76121;SDS011;70471;53.200;6.080;2023-08-30T22:33:26;0.60;;;0.30;;
76121;SDS011;70471;53.200;6.080;2023-08-30T22:38:20;0.52;;;0.15;;
76121;SDS011;70471;53.200;6.080;2023-08-30T22:43:11;1.60;;;0.38;;
76121;SDS011;70471;53.200;6.080;2023-08-30T22:48:03;0.00;;;0.00;;
76121;SDS011;70471;53.200;6.080;2023-08-30T22:52:56;0.22;;;0.10;;
76121;SDS011;70471;53.200;6.080;2023-08-30T22:57:48;1.48;;;0.75;;
76121;SDS011;70471;53.200;6.080;2023-08-30T23:02:39;0.30;;;0.20;;
76121;SDS011;70471;53.200;6.080;2023-08-30T23:07:31;0.47;;;0.32;;
76121;SDS011;70471;53.200;6.080;2023-08-30T23:12:24;0.32;;;0.10;;
76121;SDS011;70471;53.200;6.080;2023-08-30T23:17:15;0.20;;;0.10;;
76121;SDS011;70471;53.200;6.080;2023-08-30T23:22:07;0.08;;;0.00;;
76121;SDS011;70471;53.200;6.080;2023-08-30T23:26:59;0.85;;;0.20;;
76121;SDS011;70471;53.200;6.080;2023-08-30T23:31:51;0.20;;;0.10;;
76121;SDS011;70471;53.200;6.080;2023-08-30T23:36:43;0.68;;;0.10;;
76121;SDS011;70471;53.200;6.080;2023-08-30T23:41:35;0.50;;;0.20;;
76121;SDS011;70471;53.200;6.080;2023-08-30T23:46:26;0.63;;;0.10;;
76121;SDS011;70471;53.200;6.080;2023-08-30T23:51:19;0.20;;;0.10;;
76121;SDS011;70471;53.200;6.080;2023-08-30T23:56:10;1.65;;;0.10;;
